Terminal Aerodrome Forecast
Issued by NWS Charleston, WV

Current Version | Previous Version | Text Only | Print | Product List | Glossary On
Versions: 1 2 3 4 5 6 7 8 9 10 11 12 13 14 15 16 17 18 19 20 21 22 23
929
FTUS41 KRLX 241448 AAA
TAFBKW
TAF AMD
KBKW 241448Z 2415/2512 22007KT P6SM -RA SCT025 OVC035
      TEMPO 2415/2419 4SM -RA BR SCT015 BKN025
     FM241900 22009G16KT P6SM OVC060
     FM242200 21008G14KT P6SM SCT080
     FM250000 19007G13KT P6SM SCT080
     FM250900 19010G17KT P6SM SHRA OVC035=

USA.gov is the U.S. government's official web portal to all federal, state and local government web resources and services.